Time;durP1;ratioP1;P1;durP2;ratioP2;P2;SDS_P1;SDS_P2;PMS_P1;PMS_P2;Temp;Humidity;BMP_temperature;BMP_pressure;BME280_temperature;BME280_humidity;BME280_pressure;Samples;Min_cycle;Max_cycle;Signal;HPM_P1;HPM_P2
2024/01/22 00:02:25;;;;;;;5.07;4.72;;;;;;;-17.62;79.68;102480.16;6191440;23;20035;-60
2024/01/22 00:04:55;;;;;;;5.50;4.95;;;;;;;-17.63;79.40;102475.88;6206478;23;20310;-60
2024/01/22 00:07:27;;;;;;;6.15;5.20;;;;;;;-17.69;79.47;102481.00;6191877;23;20551;-60
2024/01/22 00:09:57;;;;;;;7.72;5.68;;;;;;;-17.58;79.73;102479.88;6206331;23;20089;-61
2024/01/22 00:12:28;;;;;;;5.13;4.72;;;;;;;-17.51;79.55;102477.47;6191423;23;20032;-62
2024/01/22 00:14:58;;;;;;;5.30;4.80;;;;;;;-17.51;79.44;102477.47;6206412;23;20028;-61
2024/01/22 00:17:29;;;;;;;5.95;5.38;;;;;;;-17.44;79.61;102465.09;6191640;23;20368;-59
2024/01/22 00:19:59;;;;;;;6.25;5.68;;;;;;;-17.48;79.80;102467.00;6206452;23;20389;-60
2024/01/22 00:22:31;;;;;;;9.35;5.85;;;;;;;-17.40;79.90;102447.28;6192062;23;20028;-60
2024/01/22 00:25:02;;;;;;;5.95;5.47;;;;;;;-17.31;79.60;102471.69;6206682;23;20154;-62
2024/01/22 00:27:32;;;;;;;5.50;5.00;;;;;;;-17.17;79.42;102454.34;6191929;23;20021;-58
2024/01/22 00:30:03;;;;;;;5.88;5.22;;;;;;;-17.18;78.78;102455.06;6206078;23;20040;-62
2024/01/22 00:32:33;;;;;;;5.82;5.32;;;;;;;-17.20;79.10;102452.34;6191535;23;20031;-59
2024/01/22 00:35:04;;;;;;;5.68;5.20;;;;;;;-17.21;78.86;102454.66;6206193;23;20103;-60
2024/01/22 00:37:36;;;;;;;5.60;5.05;;;;;;;-17.19;79.42;102433.28;6191694;23;20043;-59
2024/01/22 00:40:08;;;;;;;5.28;4.88;;;;;;;-17.17;79.04;102446.84;6206124;23;20081;-62
2024/01/22 00:42:39;;;;;;;12.77;6.18;;;;;;;-17.20;78.86;102436.44;6190029;23;20081;-60
2024/01/22 00:45:10;;;;;;;5.70;5.20;;;;;;;-17.23;79.13;102426.06;6206075;23;20024;-60
2024/01/22 00:47:40;;;;;;;5.72;5.20;;;;;;;-17.17;79.24;102436.84;6190464;23;20016;-61
2024/01/22 00:50:11;;;;;;;5.90;5.38;;;;;;;-17.05;79.10;102423.41;6204891;23;20055;-59
2024/01/22 00:52:43;;;;;;;8.63;5.63;;;;;;;-16.96;78.70;102424.59;6206402;23;20028;-60
2024/01/22 00:55:14;;;;;;;6.78;5.88;;;;;;;-16.99;78.31;102425.81;6191580;23;20441;-61
2024/01/22 00:57:44;;;;;;;5.78;5.20;;;;;;;-16.84;78.32;102434.38;6205988;23;20077;-63
2024/01/22 01:00:16;;;;;;;6.22;5.00;;;;;;;-16.88;77.94;102427.16;6190991;23;20024;-61
2024/01/22 01:02:47;;;;;;;6.22;5.63;;;;;;;-16.82;77.98;102412.91;6205916;23;20018;-60
2024/01/22 01:05:17;;;;;;;7.38;5.82;;;;;;;-16.80;77.87;102421.53;6190932;23;20026;-59
2024/01/22 01:07:49;;;;;;;8.38;5.90;;;;;;;-16.78;78.06;102420.13;6205838;23;20031;-60
2024/01/22 01:10:20;;;;;;;5.15;4.85;;;;;;;-16.68;77.75;102407.13;6191772;23;20032;-63
2024/01/22 01:12:50;;;;;;;6.45;5.78;;;;;;;-16.46;77.65;102410.72;6205943;23;20028;-59
2024/01/22 01:15:23;;;;;;;6.28;5.68;;;;;;;-16.46;77.16;102410.72;6191283;23;20031;-63
2024/01/22 01:17:53;;;;;;;6.00;5.40;;;;;;;-16.56;77.63;102399.56;6205694;23;20051;-57
2024/01/22 01:20:23;;;;;;;5.78;5.25;;;;;;;-16.66;77.44;102381.59;6190526;23;20067;-60
2024/01/22 01:22:55;;;;;;;8.27;5.13;;;;;;;-16.61;77.66;102390.59;6205767;23;20089;-58
2024/01/22 01:25:26;;;;;;;7.32;5.80;;;;;;;-16.66;77.75;102390.72;6191012;23;20138;-57
2024/01/22 01:27:56;;;;;;;6.88;5.95;;;;;;;-16.56;77.63;102384.56;6205399;23;20024;-62
2024/01/22 01:30:27;;;;;;;6.15;5.35;;;;;;;-16.40;77.27;102376.44;6190373;23;20479;-59
2024/01/22 01:32:57;;;;;;;6.72;5.32;;;;;;;-16.44;77.14;102381.78;6205380;23;20024;-62
2024/01/22 01:35:28;;;;;;;7.10;5.40;;;;;;;-16.40;77.09;102381.44;6190804;23;20447;-59
2024/01/22 01:38:00;;;;;;;6.35;5.65;;;;;;;-16.45;76.56;102378.38;6205411;23;20078;-63
2024/01/22 01:40:30;;;;;;;7.68;5.57;;;;;;;-16.47;77.00;102363.88;6191315;23;20528;-60
2024/01/22 01:43:00;;;;;;;5.50;5.10;;;;;;;-16.50;77.19;102368.50;6205452;23;20051;-60
2024/01/22 01:45:31;;;;;;;5.20;4.80;;;;;;;-16.38;77.11;102370.91;6190608;23;20061;-61
2024/01/22 01:48:02;;;;;;;6.07;5.47;;;;;;;-16.28;76.30;102347.94;6205195;23;20028;-60
2024/01/22 01:50:33;;;;;;;5.28;4.78;;;;;;;-16.34;74.99;102348.06;6190589;23;20027;-60
2024/01/22 01:53:06;;;;;;;4.95;4.55;;;;;;;-16.23;74.53;102341.88;6205280;23;20024;-59
2024/01/22 01:55:39;;;;;;;6.50;5.25;;;;;;;-16.52;74.96;102276.66;6190496;23;20024;-61
2024/01/22 01:58:10;;;;;;;5.00;4.50;;;;;;;-16.11;75.76;102337.50;6205270;23;20020;-58
2024/01/22 02:00:40;;;;;;;6.63;5.28;;;;;;;-16.20;75.33;102347.25;6189966;23;20039;-61
2024/01/22 02:03:11;;;;;;;6.13;4.85;;;;;;;-16.10;74.14;102330.19;6204585;23;20111;-59
2024/01/22 02:05:42;;;;;;;6.07;5.10;;;;;;;-16.12;72.92;102326.59;6205262;23;20028;-60
2024/01/22 02:08:14;;;;;;;7.50;5.22;;;;;;;-16.01;73.83;102316.97;6194135;23;20196;-62
2024/01/22 02:10:48;;;;;;;6.97;5.07;;;;;;;-16.02;72.68;102302.66;6205824;23;20054;-59
2024/01/22 02:13:18;;;;;;;4.88;4.47;;;;;;;-15.84;71.86;102314.91;6193144;23;20024;-60
2024/01/22 02:15:49;;;;;;;5.30;4.72;;;;;;;-15.67;71.78;102300.28;6207740;23;20028;-60
2024/01/22 02:18:19;;;;;;;5.57;5.07;;;;;;;-15.64;70.93;102294.72;6192829;23;20437;-59
2024/01/22 02:20:50;;;;;;;5.60;4.78;;;;;;;-15.66;70.02;102282.00;6208182;23;20028;-60
2024/01/22 02:23:22;;;;;;;5.13;4.72;;;;;;;-15.59;70.13;102295.28;6192909;23;20027;-59
2024/01/22 02:25:52;;;;;;;5.07;4.63;;;;;;;-15.54;70.67;102277.56;6207760;23;20060;-58
2024/01/22 02:28:23;;;;;;;5.03;4.50;;;;;;;-15.26;69.39;102271.72;6192680;23;20032;-58
2024/01/22 02:30:53;;;;;;;5.72;4.75;;;;;;;-15.32;68.48;102291.06;6207028;23;20028;-58
2024/01/22 02:33:24;;;;;;;5.93;4.78;;;;;;;-15.36;68.83;102291.38;6192918;23;20031;-58
2024/01/22 02:35:54;;;;;;;5.10;4.70;;;;;;;-15.46;69.14;102265.94;6207536;23;20464;-62
2024/01/22 02:38:26;;;;;;;5.18;4.68;;;;;;;-15.37;68.97;102276.16;6192797;23;20024;-59
2024/01/22 02:40:57;;;;;;;6.15;4.65;;;;;;;-15.46;68.58;102250.91;6207445;23;20020;-60
2024/01/22 02:43:27;;;;;;;7.53;4.90;;;;;;;-15.33;69.42;102256.66;6192624;23;20035;-58
2024/01/22 02:45:58;;;;;;;5.10;4.60;;;;;;;-15.28;69.01;102257.19;6207152;23;20020;-60
2024/01/22 02:48:28;;;;;;;4.72;4.43;;;;;;;-15.35;68.21;102263.09;6192203;23;20617;-61
2024/01/22 02:50:59;;;;;;;4.85;4.38;;;;;;;-15.44;69.53;102241.97;6207179;23;20518;-60
2024/01/22 02:53:31;;;;;;;5.38;4.90;;;;;;;-15.48;69.94;102255.72;6192032;23;20034;-59
2024/01/22 02:56:01;;;;;;;9.90;4.78;;;;;;;-15.25;70.27;102263.50;6207050;23;20035;-61
2024/01/22 02:58:34;;;;;;;6.00;4.82;;;;;;;-15.70;70.17;102218.84;6192829;23;20025;-60
2024/01/22 03:01:04;;;;;;;5.10;4.60;;;;;;;-15.57;70.91;102241.22;6207274;23;20023;-60
2024/01/22 03:03:35;;;;;;;5.18;4.60;;;;;;;-15.56;71.07;102222.97;6192668;23;20024;-59
2024/01/22 03:06:05;;;;;;;6.88;5.18;;;;;;;-15.41;71.02;102224.78;6207303;23;20024;-61
2024/01/22 03:08:38;;;;;;;5.15;4.70;;;;;;;-15.30;70.85;102224.44;6191513;23;20020;-62
2024/01/22 03:11:09;;;;;;;5.18;4.75;;;;;;;-15.54;70.80;102221.56;6206094;23;20324;-60
2024/01/22 03:13:39;;;;;;;4.60;4.30;;;;;;;-15.49;70.35;102215.47;6192408;23;20078;-58
2024/01/22 03:16:10;;;;;;;4.47;4.18;;;;;;;-15.51;69.98;102202.75;6206129;23;20034;-59
2024/01/22 03:18:40;;;;;;;6.25;5.07;;;;;;;-15.50;70.45;102199.53;6191185;23;20040;-59
2024/01/22 03:21:11;;;;;;;7.00;4.85;;;;;;;-15.40;70.69;102209.00;6206018;23;20020;-60
2024/01/22 03:23:44;;;;;;;4.55;4.22;;;;;;;-15.38;70.58;102197.56;6191135;23;20024;-60
2024/01/22 03:26:21;;;;;;;5.60;4.50;;;;;;;-15.35;70.39;102179.47;6191608;23;20340;-61
2024/01/22 03:28:51;;;;;;;4.90;4.50;;;;;;;-15.48;70.20;102183.06;6206729;23;20024;-58
2024/01/22 03:31:24;;;;;;;4.90;4.40;;;;;;;-15.39;69.46;102188.25;6192431;23;20775;-59
2024/01/22 03:33:55;;;;;;;8.02;4.80;;;;;;;-15.51;68.75;102161.75;6206622;23;20098;-58
2024/01/22 03:36:26;;;;;;;6.78;4.53;;;;;;;-15.67;69.85;102124.88;6192097;23;20027;-60
2024/01/22 03:38:58;;;;;;;5.20;4.70;;;;;;;-15.45;71.00;102162.47;6207100;23;20020;-60
2024/01/22 03:41:29;;;;;;;5.35;4.88;;;;;;;-15.49;71.54;102155.31;6191919;23;20544;-60
2024/01/22 03:43:59;;;;;;;4.95;4.43;;;;;;;-15.49;71.94;102145.31;6206156;23;20690;-60
2024/01/22 03:46:30;;;;;;;5.20;4.70;;;;;;;-15.66;71.82;102146.72;6192639;23;20028;-59
2024/01/22 03:49:00;;;;;;;4.70;4.40;;;;;;;-15.63;72.17;102155.31;6218134;23;20110;-62
2024/01/22 03:51:31;;;;;;;4.68;4.28;;;;;;;-15.57;72.37;102151.00;6188972;23;20037;-61
2024/01/22 03:54:03;;;;;;;5.75;5.22;;;;;;;-15.50;72.08;102144.41;6204009;23;20024;-60
2024/01/22 03:56:34;;;;;;;5.07;4.65;;;;;;;-15.60;72.21;102150.66;6191182;23;20531;-60
2024/01/22 03:59:04;;;;;;;5.13;4.70;;;;;;;-15.56;72.78;102147.81;6206462;23;20023;-59
2024/01/22 04:01:35;;;;;;;5.50;4.95;;;;;;;-15.67;72.61;102149.94;6191843;23;20765;-60
2024/01/22 04:04:05;;;;;;;6.10;5.50;;;;;;;-15.70;72.41;102144.63;6202887;23;20440;-60
2024/01/22 04:06:36;;;;;;;4.90;4.50;;;;;;;-15.61;72.53;102139.72;6188336;23;20400;-59
2024/01/22 04:09:09;;;;;;;4.90;4.50;;;;;;;-15.72;72.23;102143.53;6203035;23;20318;-61
2024/01/22 04:11:41;;;;;;;6.03;5.10;;;;;;;-15.75;72.92;102140.63;6188268;23;20523;-61
2024/01/22 04:14:11;;;;;;;5.68;5.10;;;;;;;-15.83;73.23;102123.81;6201009;23;20020;-60
2024/01/22 04:16:41;;;;;;;4.78;4.47;;;;;;;-15.96;73.58;102093.03;6204010;23;20762;-61
2024/01/22 04:19:12;;;;;;;5.13;4.65;;;;;;;-15.82;73.38;102133.16;6188309;23;20862;-60
2024/01/22 04:21:47;;;;;;;4.63;4.20;;;;;;;-16.39;72.99;102008.78;6203506;23;20020;-61
2024/01/22 04:24:19;;;;;;;5.78;4.95;;;;;;;-15.81;73.37;102109.88;6188298;23;20042;-61
2024/01/22 04:26:49;;;;;;;4.93;4.53;;;;;;;-15.67;73.70;102099.84;6203810;23;20028;-61
2024/01/22 04:29:20;;;;;;;5.13;4.63;;;;;;;-15.73;73.16;102110.78;6188834;23;20020;-61
2024/01/22 04:31:50;;;;;;;5.15;4.60;;;;;;;-15.61;73.20;102096.25;6203562;23;20027;-60
2024/01/22 04:34:21;;;;;;;5.65;5.15;;;;;;;-15.66;72.46;102086.56;6189123;23;20441;-61
2024/01/22 04:36:52;;;;;;;5.57;4.80;;;;;;;-15.56;73.72;102092.66;6203458;23;20020;-61
2024/01/22 04:39:25;;;;;;;5.93;4.70;;;;;;;-15.61;72.48;102078.72;6188845;23;20050;-61
2024/01/22 04:41:56;;;;;;;5.15;4.65;;;;;;;-15.62;72.80;102066.88;6203165;23;20016;-62
2024/01/22 04:44:28;;;;;;;6.28;5.28;;;;;;;-15.72;72.51;102050.84;6188252;23;20027;-61
2024/01/22 04:46:59;;;;;;;4.82;4.43;;;;;;;-15.77;72.89;102041.91;6203221;23;20111;-61
2024/01/22 04:49:29;;;;;;;6.25;4.88;;;;;;;-15.76;73.24;102063.72;6188942;23;20686;-61
2024/01/22 04:52:00;;;;;;;4.60;4.30;;;;;;;-15.75;72.19;102055.47;6202624;23;20124;-61
2024/01/22 04:54:32;;;;;;;4.28;3.97;;;;;;;-15.77;72.61;102061.94;6188218;23;20032;-62
2024/01/22 04:57:02;;;;;;;5.10;4.63;;;;;;;-15.82;72.66;102037.97;6202816;23;20027;-63
2024/01/22 04:59:33;;;;;;;5.38;4.88;;;;;;;-15.92;72.92;102037.59;6188292;23;21529;-62
2024/01/22 05:02:03;;;;;;;5.10;4.70;;;;;;;-15.96;72.81;102047.97;6203296;23;20688;-60
2024/01/22 05:04:34;;;;;;;4.55;4.25;;;;;;;-16.00;72.61;102040.81;6188813;23;20024;-61
2024/01/22 05:07:04;;;;;;;5.13;4.72;;;;;;;-16.13;72.92;102041.88;6202942;23;20032;-60
2024/01/22 05:09:36;;;;;;;6.50;5.90;;;;;;;-16.22;73.00;102033.28;6188297;23;20024;-61
2024/01/22 05:12:07;;;;;;;5.65;4.95;;;;;;;-16.28;73.38;102042.56;6202908;23;20626;-61
2024/01/22 05:14:40;;;;;;;5.43;4.93;;;;;;;-16.31;73.94;102055.63;6187151;23;20476;-61
2024/01/22 05:17:10;;;;;;;5.10;4.60;;;;;;;-16.33;73.83;102063.66;6203263;23;20035;-62
2024/01/22 05:19:41;;;;;;;4.88;4.50;;;;;;;-16.29;73.65;102065.81;6187306;23;20019;-60
2024/01/22 05:22:12;;;;;;;5.43;4.85;;;;;;;-16.26;73.06;102056.16;6192026;23;20119;-61
2024/01/22 05:24:44;;;;;;;6.63;5.90;;;;;;;-16.39;73.33;102047.94;6203035;23;20054;-59
2024/01/22 05:27:14;;;;;;;5.13;4.63;;;;;;;-16.32;73.68;102050.44;6187912;23;20016;-61
2024/01/22 05:29:45;;;;;;;7.47;4.97;;;;;;;-16.34;73.10;102046.88;6201385;23;20480;-59
2024/01/22 05:32:15;;;;;;;5.38;4.57;;;;;;;-16.31;73.28;102027.19;6186928;23;20067;-61
2024/01/22 05:34:46;;;;;;;5.28;4.88;;;;;;;-16.31;72.87;102027.19;6203391;23;20016;-60
2024/01/22 05:37:18;;;;;;;5.20;4.80;;;;;;;-16.24;72.79;102029.72;6188653;23;20020;-61
2024/01/22 05:39:50;;;;;;;5.72;5.13;;;;;;;-16.29;72.90;102020.78;6202868;23;20024;-62
2024/01/22 05:42:21;;;;;;;5.00;4.53;;;;;;;-16.24;72.68;102017.19;6187779;23;20107;-61
2024/01/22 05:44:51;;;;;;;5.70;5.10;;;;;;;-16.32;72.95;102010.41;6202021;23;20032;-60
2024/01/22 05:47:22;;;;;;;5.40;5.00;;;;;;;-16.33;73.51;102009.47;6188234;23;20107;-61
2024/01/22 05:49:52;;;;;;;5.28;4.80;;;;;;;-16.42;73.50;102002.50;6203012;23;20016;-61
2024/01/22 05:52:23;;;;;;;5.53;5.03;;;;;;;-16.53;74.40;101989.63;6189170;23;20085;-60
2024/01/22 05:54:55;;;;;;;4.80;4.43;;;;;;;-16.58;74.95;102000.69;6202381;23;20093;-59
2024/01/22 05:57:25;;;;;;;5.00;4.40;;;;;;;-16.66;75.67;101985.50;6187644;23;20040;-63
2024/01/22 05:59:56;;;;;;;6.03;5.10;;;;;;;-16.86;75.75;101961.53;6202457;23;20071;-61
2024/01/22 06:02:26;;;;;;;4.95;4.47;;;;;;;-16.85;76.29;101973.31;6187892;23;20028;-61
2024/01/22 06:04:57;;;;;;;5.70;5.10;;;;;;;-16.97;76.78;101967.78;6202500;23;20069;-60
2024/01/22 06:07:27;;;;;;;7.07;5.07;;;;;;;-17.01;77.29;101945.63;6188736;23;20110;-61
2024/01/22 06:09:59;;;;;;;4.55;4.25;;;;;;;-17.04;77.36;101950.25;6202565;23;20554;-61
2024/01/22 06:12:37;;;;;;;5.07;4.72;;;;;;;-17.04;77.78;101955.25;6186315;23;20445;-62
2024/01/22 06:15:08;;;;;;;5.55;5.07;;;;;;;-17.29;77.24;101911.44;6202502;23;20051;-60
2024/01/22 06:17:39;;;;;;;4.53;4.25;;;;;;;-17.02;77.43;101958.84;6186008;23;20028;-62
2024/01/22 06:20:11;;;;;;;5.13;4.70;;;;;;;-17.01;77.46;101950.59;6202521;23;20020;-62
2024/01/22 06:22:41;;;;;;;7.93;5.03;;;;;;;-17.00;77.42;101952.38;6188117;23;20044;-61
2024/01/22 06:25:13;;;;;;;7.10;5.85;;;;;;;-17.03;77.55;101961.13;6199388;23;20060;-61
2024/01/22 06:27:44;;;;;;;5.30;4.90;;;;;;;-16.99;77.59;101976.69;6202661;23;20722;-60
2024/01/22 06:30:16;;;;;;;6.13;5.20;;;;;;;-16.99;77.68;101964.19;6187639;23;20024;-63
2024/01/22 06:32:47;;;;;;;4.78;4.38;;;;;;;-16.98;78.09;101965.97;6202636;23;20024;-60
2024/01/22 06:35:17;;;;;;;5.13;4.72;;;;;;;-17.04;78.49;101960.25;6187799;23;20094;-63
2024/01/22 06:37:48;;;;;;;5.38;4.97;;;;;;;-17.01;78.67;101970.59;6202310;23;20043;-61
2024/01/22 06:40:20;;;;;;;5.40;4.93;;;;;;;-17.06;79.49;101966.66;6188456;23;20095;-62
2024/01/22 06:42:50;;;;;;;6.00;5.45;;;;;;;-17.05;79.80;101947.56;6202909;23;20047;-61
2024/01/22 06:45:21;;;;;;;6.10;5.15;;;;;;;-17.06;79.96;101966.66;6187332;23;20381;-63
2024/01/22 06:47:52;;;;;;;4.75;4.45;;;;;;;-17.08;80.30;101983.06;6202431;23;20054;-60
2024/01/22 06:50:23;;;;;;;5.30;4.90;;;;;;;-17.40;80.41;101930.09;6188088;23;20020;-61
2024/01/22 06:52:54;;;;;;;5.57;5.18;;;;;;;-17.07;80.58;101989.88;6202654;23;20020;-59
2024/01/22 06:55:26;;;;;;;5.25;4.85;;;;;;;-17.08;80.75;101988.06;6188272;23;20024;-60
2024/01/22 06:57:56;;;;;;;6.22;5.13;;;;;;;-17.11;80.98;101974.34;6202245;23;20460;-60
2024/01/22 07:00:27;;;;;;;6.20;5.38;;;;;;;-17.15;81.20;101969.66;6187216;23;20727;-62
2024/01/22 07:02:58;;;;;;;6.05;5.55;;;;;;;-17.16;81.57;101963.78;6202689;23;20028;-63
2024/01/22 07:05:29;;;;;;;7.57;5.35;;;;;;;-17.18;81.71;101970.19;6189114;23;20043;-60
2024/01/22 07:08:00;;;;;;;5.57;5.07;;;;;;;-17.18;81.75;101970.19;6202695;23;20051;-61
2024/01/22 07:10:32;;;;;;;5.38;4.90;;;;;;;-17.22;82.03;101968.03;6188421;23;20090;-62
2024/01/22 07:13:03;;;;;;;5.47;4.97;;;;;;;-17.22;82.38;101955.53;6204336;23;20024;-62
2024/01/22 07:15:33;;;;;;;6.70;5.30;;;;;;;-17.23;82.61;101962.13;6188955;23;20111;-61
2024/01/22 07:18:04;;;;;;;6.03;5.53;;;;;;;-17.25;83.40;101963.53;6204098;23;20016;-61
2024/01/22 07:20:35;;;;;;;6.50;5.75;;;;;;;-17.31;84.04;101946.94;6189248;23;20066;-63
2024/01/22 07:23:05;;;;;;;6.30;5.72;;;;;;;-17.36;84.66;101948.00;6203901;23;20106;-60
2024/01/22 07:25:37;;;;;;;8.05;5.88;;;;;;;-17.32;84.94;101960.13;6188998;23;20051;-63
2024/01/22 07:28:08;;;;;;;7.63;6.20;;;;;;;-17.48;85.38;101970.75;6203571;23;20024;-63
2024/01/22 07:30:39;;;;;;;6.10;5.40;;;;;;;-17.58;86.09;101960.38;6188288;23;20341;-62
2024/01/22 07:33:09;;;;;;;5.72;5.22;;;;;;;-17.70;86.59;101948.88;6204184;23;20157;-61
2024/01/22 07:35:40;;;;;;;6.05;5.45;;;;;;;-17.70;86.87;101964.75;6188470;23;20024;-62
2024/01/22 07:38:10;;;;;;;5.72;5.22;;;;;;;-17.74;87.42;101959.19;6204356;23;20020;-62
2024/01/22 07:40:42;;;;;;;8.52;5.50;;;;;;;-17.76;87.43;101959.03;6189343;23;20070;-62
2024/01/22 07:43:13;;;;;;;9.00;5.45;;;;;;;-17.83;87.63;101937.44;6189457;23;20020;-59
2024/01/22 07:45:43;;;;;;;7.22;5.68;;;;;;;-17.86;87.62;101952.03;6204238;23;20086;-61
2024/01/22 07:48:14;;;;;;;5.72;5.32;;;;;;;-17.91;87.94;101943.09;6189188;23;20020;-62
2024/01/22 07:50:45;;;;;;;6.30;5.75;;;;;;;-17.92;88.24;101956.28;6203524;23;20024;-63
2024/01/22 07:53:16;;;;;;;5.97;5.47;;;;;;;-17.93;88.37;101942.00;6188829;23;20082;-60
2024/01/22 07:55:49;;;;;;;7.93;6.13;;;;;;;-17.94;88.59;101936.81;6203029;23;20123;-61
2024/01/22 07:58:19;;;;;;;5.60;5.10;;;;;;;-17.95;88.91;101945.91;6189779;23;20054;-62
2024/01/22 08:00:49;;;;;;;5.80;5.30;;;;;;;-17.94;89.15;101942.72;6203824;23;20372;-61
2024/01/22 08:03:22;;;;;;;6.78;6.18;;;;;;;-17.95;89.07;101943.41;6188918;23;20844;-61
2024/01/22 08:05:52;;;;;;;7.93;6.00;;;;;;;-17.93;89.34;101959.47;6204177;23;20065;-61
2024/01/22 08:08:23;;;;;;;6.50;5.63;;;;;;;-17.93;89.61;101954.47;6188564;23;20382;-59
2024/01/22 08:10:55;;;;;;;6.03;5.53;;;;;;;-17.94;89.72;101962.69;6203386;23;20023;-60
2024/01/22 08:13:26;;;;;;;5.70;5.20;;;;;;;-18.11;89.65;101904.81;6189406;23;20024;-61
2024/01/22 08:15:56;;;;;;;6.97;6.10;;;;;;;-17.93;89.73;101919.53;6203678;23;20107;-63
2024/01/22 08:18:27;;;;;;;5.60;5.20;;;;;;;-17.89;89.60;101936.69;6188192;23;20040;-61
2024/01/22 08:20:57;;;;;;;6.13;5.53;;;;;;;-17.89;89.72;101931.69;6203056;22;20066;-61
2024/01/22 08:23:28;;;;;;;8.15;6.00;;;;;;;-17.89;89.55;101921.72;6188044;23;20020;-61
2024/01/22 08:26:00;;;;;;;6.32;5.63;;;;;;;-17.90;89.38;101934.00;6203309;23;20031;-61
2024/01/22 08:28:31;;;;;;;7.95;5.93;;;;;;;-17.87;89.52;101930.28;6189215;23;20440;-63
2024/01/22 08:31:02;;;;;;;11.10;6.43;;;;;;;-18.19;89.53;101881.44;6203343;23;20066;-60
2024/01/22 08:33:33;;;;;;;7.18;6.35;;;;;;;-17.87;89.65;101920.31;6187424;23;20104;-62
2024/01/22 08:36:04;;;;;;;6.80;6.03;;;;;;;-17.87;89.50;101944.34;6203094;23;20119;-61
2024/01/22 08:38:34;;;;;;;7.97;6.50;;;;;;;-17.87;89.74;101950.25;6188404;23;20540;-62
2024/01/22 08:41:08;;;;;;;9.85;6.07;;;;;;;-17.84;89.99;101934.75;6202821;23;20024;-63
2024/01/22 08:43:38;;;;;;;6.43;5.93;;;;;;;-17.80;89.83;101936.03;6188155;23;20111;-61
2024/01/22 08:46:09;;;;;;;6.10;5.47;;;;;;;-17.83;89.52;101932.44;6203474;23;20020;-59
2024/01/22 08:48:39;;;;;;;7.65;6.10;;;;;;;-17.87;89.72;101930.28;6187554;23;20046;-64
2024/01/22 08:51:10;;;;;;;6.70;6.00;;;;;;;-17.88;89.89;101928.47;6203226;23;20480;-61
2024/01/22 08:53:40;;;;;;;6.22;5.72;;;;;;;-18.31;89.77;101848.38;6187348;23;20710;-62
2024/01/22 08:56:13;;;;;;;6.45;5.85;;;;;;;-17.95;89.96;101903.47;6201020;23;20445;-62
2024/01/22 08:58:43;;;;;;;6.03;5.25;;;;;;;-17.90;90.04;101922.41;6203203;23;20587;-62
2024/01/22 09:01:14;;;;;;;7.20;5.47;;;;;;;-17.93;89.79;101924.53;6187667;23;20058;-63
2024/01/22 09:03:45;;;;;;;6.40;5.70;;;;;;;-17.95;89.85;101915.06;6202223;23;20048;-60
2024/01/22 09:06:15;;;;;;;7.50;5.80;;;;;;;-17.89;89.75;101914.22;6187619;23;20024;-60
2024/01/22 09:08:46;;;;;;;5.82;5.32;;;;;;;-17.90;89.61;101899.94;6202160;23;20050;-62
2024/01/22 09:11:18;;;;;;;6.18;5.68;;;;;;;-18.39;89.67;101819.13;6187958;23;20551;-61
2024/01/22 09:13:49;;;;;;;5.30;4.88;;;;;;;-17.93;89.97;101914.56;6203072;23;20024;-63
2024/01/22 09:16:21;;;;;;;11.95;5.85;;;;;;;-18.03;89.80;101894.16;6188141;23;20012;-62
2024/01/22 09:18:51;;;;;;;6.70;6.07;;;;;;;-17.95;89.80;101905.97;6202875;23;20078;-60
2024/01/22 09:21:22;;;;;;;6.85;5.80;;;;;;;-17.94;89.84;101907.78;6188538;23;20078;-61
2024/01/22 09:23:52;;;;;;;5.72;5.15;;;;;;;-17.93;89.82;101909.56;6203183;23;20035;-64
2024/01/22 09:26:24;;;;;;;6.97;5.78;;;;;;;-17.93;90.02;101912.06;6188315;23;20560;-58
2024/01/22 09:28:55;;;;;;;7.03;5.93;;;;;;;-17.90;90.06;101914.91;6202256;23;20024;-60
2024/01/22 09:31:26;;;;;;;7.15;5.43;;;;;;;-17.87;89.87;101907.81;6188260;23;20594;-61
2024/01/22 09:33:56;;;;;;;5.22;4.72;;;;;;;-17.83;89.81;101922.44;6202459;23;20424;-61
2024/01/22 09:36:27;;;;;;;6.18;5.60;;;;;;;-17.82;89.71;101908.34;6187303;23;20247;-62
2024/01/22 09:38:57;;;;;;;10.52;6.90;;;;;;;-17.83;89.88;101907.47;6202123;23;20024;-61
2024/01/22 09:41:31;;;;;;;6.22;5.65;;;;;;;-17.86;89.84;101892.13;6187904;23;20511;-62
2024/01/22 09:44:02;;;;;;;5.93;5.30;;;;;;;-17.74;90.01;101914.25;6202383;23;20024;-60
2024/01/22 09:46:33;;;;;;;6.15;5.55;;;;;;;-17.69;89.85;101920.72;6188322;23;20033;-63
2024/01/22 09:49:04;;;;;;;6.15;5.60;;;;;;;-17.69;90.07;101903.25;6202133;23;20314;-63
2024/01/22 09:51:36;;;;;;;5.30;4.75;;;;;;;-17.69;90.12;101905.75;6187648;23;20341;-60
2024/01/22 09:54:08;;;;;;;7.30;6.10;;;;;;;-17.70;90.64;101903.94;6201327;23;20052;-59
2024/01/22 09:56:41;;;;;;;7.15;6.18;;;;;;;-17.68;90.36;101907.53;6186924;23;20020;-62
2024/01/22 09:59:20;;;;;;;7.07;6.35;;;;;;;-17.68;90.65;101897.53;6198315;23;20473;-61
2024/01/22 10:01:51;;;;;;;6.00;5.50;;;;;;;-17.65;90.72;101912.88;6201724;23;20060;-61
2024/01/22 10:04:23;;;;;;;6.78;5.80;;;;;;;-17.65;90.89;101902.88;6187108;23;20024;-60
2024/01/22 10:06:54;;;;;;;6.53;6.00;;;;;;;-17.70;90.99;101888.94;6201558;23;20027;-58
2024/01/22 10:09:24;;;;;;;5.85;5.40;;;;;;;-17.61;91.15;101912.56;6186707;23;20111;-59
2024/01/22 10:11:57;;;;;;;7.70;5.47;;;;;;;-18.59;91.19;101724.41;6201676;23;20102;-64
2024/01/22 10:14:33;;;;;;;7.35;5.20;;;;;;;-17.63;91.13;101882.38;6186628;23;20038;-59
2024/01/22 10:17:17;;;;;;;5.15;4.75;;;;;;;-17.90;91.18;101824.16;6201971;23;20349;-61
2024/01/22 10:19:49;;;;;;;5.90;5.32;;;;;;;-17.56;90.92;101894.03;6190019;23;20719;-61
2024/01/22 10:22:20;;;;;;;6.38;5.43;;;;;;;-17.80;91.20;101856.13;6188072;23;20107;-64
2024/01/22 10:25:00;;;;;;;5.15;4.75;;;;;;;-17.48;91.15;101883.34;6202609;23;20028;-60
2024/01/22 10:27:32;;;;;;;7.60;5.88;;;;;;;-17.47;91.21;101870.16;6186930;23;20705;-61
2024/01/22 10:30:13;;;;;;;5.88;5.20;;;;;;;-17.44;91.34;101870.50;6201842;23;20020;-60
2024/01/22 10:32:44;;;;;;;5.57;5.03;;;;;;;-17.43;91.46;101861.41;6188190;23;20024;-61
2024/01/22 10:35:25;;;;;;;6.38;5.00;;;;;;;-17.40;91.48;101856.78;6188563;23;20095;-59
2024/01/22 10:38:07;;;;;;;6.13;5.53;;;;;;;-17.42;91.48;101849.13;6203539;23;20456;-63
2024/01/22 10:40:39;;;;;;;6.68;5.00;;;;;;;-17.40;91.51;101832.69;6189045;23;20051;-61
2024/01/22 10:43:26;;;;;;;5.80;5.03;;;;;;;-17.38;91.43;101824.50;6204157;23;20028;-62
2024/01/22 10:45:59;;;;;;;5.63;5.18;;;;;;;-17.35;91.79;101825.72;6204332;23;20055;-59
2024/01/22 10:48:30;;;;;;;5.15;4.78;;;;;;;-17.40;91.72;101807.69;6189462;23;20051;-59
2024/01/22 10:51:13;;;;;;;5.85;5.20;;;;;;;-17.31;91.92;101802.91;6191245;23;20107;-62
2024/01/22 10:53:44;;;;;;;6.10;4.60;;;;;;;-17.29;92.08;101795.63;6203829;23;20031;-59
2024/01/22 10:56:24;;;;;;;5.03;4.65;;;;;;;-17.41;92.30;101780.94;6188819;23;20387;-60
2024/01/22 10:59:04;;;;;;;6.00;5.40;;;;;;;-17.28;92.29;101783.28;6204296;23;20338;-59
2024/01/22 11:01:38;;;;;;;6.30;5.68;;;;;;;-17.26;92.49;101786.84;6189313;23;20393;-61
2024/01/22 11:04:11;;;;;;;6.38;5.72;;;;;;;-17.24;92.49;101769.56;6204086;23;20024;-62
2024/01/22 11:06:43;;;;;;;7.35;6.65;;;;;;;-17.33;92.60;101749.38;6189663;23;20024;-60
2024/01/22 11:09:18;;;;;;;9.50;5.63;;;;;;;-17.21;92.86;101764.91;6189279;23;20497;-62
2024/01/22 11:11:51;;;;;;;6.45;5.80;;;;;;;-17.40;92.61;101707.78;6204300;23;20015;-60
2024/01/22 11:14:23;;;;;;;6.03;5.43;;;;;;;-17.48;92.61;101703.50;6189424;23;20048;-59
2024/01/22 11:16:54;;;;;;;12.30;6.28;;;;;;;-17.48;92.81;101693.50;6204575;23;20038;-58
2024/01/22 11:19:24;;;;;;;5.70;5.22;;;;;;;-17.14;92.84;101742.44;6190163;23;20024;-59
2024/01/22 11:21:55;;;;;;;8.77;6.30;;;;;;;-17.14;92.74;101729.94;6203831;23;20038;-61
2024/01/22 11:24:28;;;;;;;8.18;6.07;;;;;;;-17.13;93.14;101734.19;6189060;23;20020;-58
2024/01/22 11:27:07;;;;;;;6.10;5.50;;;;;;;-17.17;92.86;101707.06;6203358;23;20345;-62
2024/01/22 11:29:40;;;;;;;7.00;6.30;;;;;;;-17.07;92.94;101724.94;6188426;23;20074;-60
2024/01/22 11:32:29;;;;;;;6.43;5.82;;;;;;;-17.10;92.85;101719.56;6204240;23;20071;-62
2024/01/22 11:35:02;;;;;;;7.68;5.47;;;;;;;-17.21;92.97;101704.94;6203552;23;20542;-59
2024/01/22 11:37:47;;;;;;;6.38;5.63;;;;;;;-17.07;92.99;101724.00;6188134;23;20248;-62